Weather at Salt Lake City International Airport

Public forecast

Using degrees Fahrenheit for public forecast. Weather courtesy of forecast.io.

Current aviation weather report (METAR) for Salt Lake City International Airport

Retrieved 2020/10/30 06:54 UTC (18 minutes ago):

KSLC 300654Z 13006KT 10SM CLR 06/M02 A3025 RMK AO2 SLP228 T00561017 401670011 VISNO NW RNWY

Aviation forecast (TAF) for Salt Lake City International Airport

Forecast is more than 6 hours old.

Retrieved 2020-10-30 00:22 UTC (7 hours ago):

TAF KSLC 292320Z 3000/3106 32006KT P6SM SKC FM300300 15006KT P6SM SKC FM302100 21006KT P6SM SKC FM310300 15006KT P6SM SKC